Time;durP1;ratioP1;P1;durP2;ratioP2;P2;SDS_P1;SDS_P2;PMS_P1;PMS_P2;Temp;Humidity;BMP_temperature;BMP_pressure;BME280_temperature;BME280_humidity;BME280_pressure;Samples;Min_cycle;Max_cycle;Signal;HPM_P1;HPM_P2
2022/04/18 00:02:24;;;;;;;72.30;48.40;;;;;;;2.82;75.74;99369.05;105121;1273;74975;-75
2022/04/18 00:04:51;;;;;;;75.20;48.30;;;;;;;2.73;75.99;99362.13;105120;1273;68712;-74
2022/04/18 00:07:18;;;;;;;79.50;50.90;;;;;;;2.62;75.84;99362.08;105037;1273;72822;-74
2022/04/18 00:09:44;;;;;;;84.10;54.10;;;;;;;2.51;75.96;99358.00;105068;1273;61287;-75
2022/04/18 00:12:11;;;;;;;88.40;55.00;;;;;;;2.41;76.20;99356.72;105098;1273;60855;-74
2022/04/18 00:14:38;;;;;;;81.10;52.70;;;;;;;2.32;76.70;99355.39;104358;1273;1004193;-75
2022/04/18 00:17:09;;;;;;;77.80;50.90;;;;;;;2.24;77.40;99353.30;105045;1273;69910;-75
2022/04/18 00:19:38;;;;;;;76.40;50.40;;;;;;;2.17;77.36;99348.44;105050;1274;74456;-75
2022/04/18 00:22:05;;;;;;;78.90;50.20;;;;;;;2.10;77.62;99347.40;105050;1273;61398;-76
2022/04/18 00:24:32;;;;;;;77.80;49.50;;;;;;;2.03;77.77;99344.26;104987;1273;62006;-75
2022/04/18 00:27:00;;;;;;;82.90;53.80;;;;;;;1.95;77.91;99339.05;104920;1274;73403;-74
2022/04/18 00:29:27;;;;;;;80.30;51.10;;;;;;;1.86;78.00;99334.54;105075;1273;69347;-75
2022/04/18 00:31:54;;;;;;;86.40;54.60;;;;;;;1.78;78.56;99334.94;105030;1272;73156;-76
2022/04/18 00:34:21;;;;;;;101.80;57.80;;;;;;;1.71;78.82;99331.61;105060;1273;61281;-73
2022/04/18 00:36:47;;;;;;;85.50;56.60;;;;;;;1.63;79.18;99330.73;105102;1273;61232;-74
2022/04/18 00:39:14;;;;;;;88.10;57.90;;;;;;;1.54;79.50;99325.02;105073;1273;61300;-74
2022/04/18 00:41:41;;;;;;;84.00;53.00;;;;;;;1.47;80.18;99320.98;105058;1274;61288;-76
2022/04/18 00:44:07;;;;;;;80.90;54.50;;;;;;;1.41;80.54;99320.79;105095;1273;73588;-75
2022/04/18 00:46:34;;;;;;;86.40;54.50;;;;;;;1.36;80.91;99318.99;104972;1273;61444;-76
2022/04/18 00:49:00;;;;;;;84.00;52.50;;;;;;;1.33;81.05;99318.02;105092;1273;61145;-74
2022/04/18 00:51:28;;;;;;;79.20;49.90;;;;;;;1.25;81.26;99314.34;105082;1273;75116;-74
2022/04/18 00:53:56;;;;;;;68.10;45.50;;;;;;;1.17;81.36;99314.90;105222;1272;70722;-74
2022/04/18 00:56:25;;;;;;;76.70;48.70;;;;;;;1.11;81.72;99310.30;105137;1273;73901;-74
2022/04/18 00:58:52;;;;;;;78.00;49.40;;;;;;;1.08;82.18;99307.57;105109;1272;61345;-74
2022/04/18 01:01:19;;;;;;;74.00;48.10;;;;;;;1.07;82.39;99305.15;105095;1273;61453;-75
2022/04/18 01:03:46;;;;;;;74.60;48.00;;;;;;;1.06;82.58;99304.84;105075;1273;75123;-75
2022/04/18 01:06:15;;;;;;;74.10;47.60;;;;;;;1.03;82.84;99299.98;105062;1272;70354;-75
2022/04/18 01:08:43;;;;;;;76.30;48.40;;;;;;;0.99;82.74;99300.98;104405;1274;1003839;-77
2022/04/18 01:11:10;;;;;;;74.80;47.50;;;;;;;0.92;82.68;99292.90;105030;1274;61333;-73
2022/04/18 01:13:45;;;;;;;75.70;47.90;;;;;;;0.85;82.69;99294.45;105047;1273;61124;-74
2022/04/18 01:16:12;;;;;;;72.60;46.60;;;;;;;0.78;83.05;99289.89;105061;1274;75511;-74
2022/04/18 01:18:39;;;;;;;77.20;49.70;;;;;;;0.74;83.57;99290.32;105073;1274;68608;-75
2022/04/18 01:21:07;;;;;;;72.70;49.30;;;;;;;0.71;84.03;99285.35;105054;1273;73365;-74
2022/04/18 01:23:34;;;;;;;80.90;50.90;;;;;;;0.67;84.10;99285.24;105095;1273;61349;-75
2022/04/18 01:28:59;;;;;;;68.40;44.30;;;;;;;0.55;84.49;99277.13;105023;1274;73303;-76
2022/04/18 01:31:26;;;;;;;69.10;45.80;;;;;;;0.49;84.69;99280.23;105070;1274;70729;-73
2022/04/18 01:33:54;;;;;;;66.60;44.20;;;;;;;0.43;85.00;99279.11;105061;1272;74095;-75
2022/04/18 01:36:21;;;;;;;71.30;46.20;;;;;;;0.38;85.14;99275.55;105089;1272;61323;-73
2022/04/18 01:38:47;;;;;;;73.80;47.30;;;;;;;0.30;85.13;99272.41;105033;1274;61282;-74
2022/04/18 01:41:14;;;;;;;81.70;50.50;;;;;;;0.22;85.44;99269.77;105074;1274;76455;-74
2022/04/18 01:43:41;;;;;;;87.20;50.50;;;;;;;0.19;86.11;99267.23;105087;1274;69443;-75
2022/04/18 01:46:08;;;;;;;79.10;52.50;;;;;;;0.12;86.80;99260.37;104234;1274;1003110;-74
2022/04/18 01:48:34;;;;;;;80.50;50.60;;;;;;;0.08;87.23;99259.41;105086;1273;61277;-75
2022/04/18 01:51:01;;;;;;;78.20;52.50;;;;;;;0.04;87.34;99257.91;105080;1273;61213;-74
2022/04/18 01:53:30;;;;;;;78.10;50.70;;;;;;;0.00;87.70;99254.66;104976;1275;73738;-75
2022/04/18 01:55:57;;;;;;;79.70;51.50;;;;;;;-0.03;88.03;99252.98;105210;1273;67594;-75
2022/04/18 01:58:24;;;;;;;88.60;55.00;;;;;;;-0.06;88.24;99250.23;105107;1274;73299;-73
2022/04/18 02:00:50;;;;;;;84.00;55.00;;;;;;;-0.09;88.52;99251.34;104980;1273;61336;-75
2022/04/18 02:03:18;;;;;;;83.80;54.20;;;;;;;-0.11;88.74;99250.53;105067;1272;61206;-74
2022/04/18 02:05:44;;;;;;;85.90;55.90;;;;;;;-0.13;89.07;99246.55;105130;1274;76550;-74
2022/04/18 02:08:11;;;;;;;73.30;51.20;;;;;;;-0.18;89.50;99249.78;105141;1274;69349;-74
2022/04/18 02:10:38;;;;;;;84.10;53.60;;;;;;;-0.25;89.89;99249.57;105067;1273;72698;-75
2022/04/18 02:13:05;;;;;;;83.10;54.40;;;;;;;-0.30;89.95;99250.38;105082;1273;61330;-75
2022/04/18 02:15:32;;;;;;;80.70;51.30;;;;;;;-0.33;90.07;99244.66;104978;1274;62210;-72
2022/04/18 02:17:58;;;;;;;80.60;52.40;;;;;;;-0.35;90.32;99243.48;105119;1274;76105;-72
2022/04/18 02:20:25;;;;;;;96.60;62.30;;;;;;;-0.38;90.70;99240.05;105069;1274;61367;-74
2022/04/18 02:22:51;;;;;;;100.00;65.30;;;;;;;-0.39;91.33;99238.52;105127;1274;73918;-73
2022/04/18 02:25:19;;;;;;;105.30;70.90;;;;;;;-0.39;92.54;99237.63;105155;1274;61472;-75
2022/04/18 02:27:46;;;;;;;109.40;76.10;;;;;;;-0.36;93.53;99239.49;105180;1274;61301;-73
2022/04/18 02:30:13;;;;;;;115.80;78.60;;;;;;;-0.33;93.38;99241.52;105226;1274;75046;-75
2022/04/18 02:32:48;;;;;;;126.50;81.90;;;;;;;-0.31;93.57;99235.73;105205;1273;69183;-73
2022/04/18 02:35:25;;;;;;;135.10;89.80;;;;;;;-0.29;93.72;99233.06;105299;1274;74400;-74
2022/04/18 02:37:53;;;;;;;125.60;85.50;;;;;;;-0.24;94.04;99235.42;105506;1273;61351;-76
2022/04/18 02:40:21;;;;;;;128.30;82.30;;;;;;;-0.23;94.02;99233.13;105470;1274;61216;-73
2022/04/18 02:42:48;;;;;;;122.20;79.00;;;;;;;-0.26;93.88;99229.68;105617;1272;73313;-74
2022/04/18 02:45:18;;;;;;;119.90;78.20;;;;;;;-0.29;93.60;99230.61;105768;1274;69629;-74
2022/04/18 02:47:46;;;;;;;109.00;74.60;;;;;;;-0.33;93.70;99227.73;105859;1274;74360;-73
2022/04/18 02:50:13;;;;;;;108.00;72.90;;;;;;;-0.34;93.99;99230.02;106268;1274;61202;-73
2022/04/18 02:52:40;;;;;;;110.30;73.60;;;;;;;-0.36;94.18;99231.11;108150;1274;61352;-73
2022/04/18 02:55:07;;;;;;;111.10;72.80;;;;;;;-0.36;94.31;99229.89;108354;1273;75040;-73
2022/04/18 02:57:35;;;;;;;100.90;70.80;;;;;;;-0.37;94.49;99228.15;108304;1271;69454;-74
2022/04/18 03:00:03;;;;;;;98.40;67.70;;;;;;;-0.36;94.80;99229.72;108174;1274;73211;-72
2022/04/18 03:02:29;;;;;;;99.50;69.00;;;;;;;-0.35;94.80;99230.20;106185;1274;61407;-75
2022/04/18 03:04:56;;;;;;;102.60;69.70;;;;;;;-0.33;94.96;99227.21;105113;1274;61288;-75
2022/04/18 03:07:22;;;;;;;101.10;72.00;;;;;;;-0.32;94.99;99222.83;105098;1272;61401;-77
2022/04/18 03:09:49;;;;;;;93.60;68.30;;;;;;;-0.32;94.89;99220.88;105048;1274;61360;-76
2022/04/18 03:12:15;;;;;;;94.20;65.40;;;;;;;-0.33;94.68;99217.77;105086;1274;61406;-74
2022/04/18 03:14:43;;;;;;;92.70;66.70;;;;;;;-0.36;94.67;99212.95;104975;1274;61307;-75
2022/04/18 03:17:09;;;;;;;98.10;66.70;;;;;;;-0.39;94.65;99210.23;105113;1274;61269;-76
2022/04/18 03:19:36;;;;;;;90.10;63.60;;;;;;;-0.46;94.56;99207.38;105041;1274;73920;-74
2022/04/18 03:22:03;;;;;;;97.60;66.10;;;;;;;-0.49;94.59;99207.27;105019;1274;69397;-74
2022/04/18 03:24:31;;;;;;;97.90;68.70;;;;;;;-0.52;94.72;99205.91;104977;1274;71563;-74
2022/04/18 03:26:58;;;;;;;100.30;65.80;;;;;;;-0.52;95.18;99204.02;105077;1274;61245;-74
2022/04/18 03:29:24;;;;;;;115.00;73.40;;;;;;;-0.52;95.42;99203.29;105062;1273;62995;-74
2022/04/18 03:31:52;;;;;;;111.70;75.30;;;;;;;-0.50;95.63;99200.48;105052;1274;74690;-75
2022/04/18 03:34:19;;;;;;;131.80;80.00;;;;;;;-0.45;95.96;99203.53;105070;1274;69629;-74
2022/04/18 03:39:51;;;;;;;129.60;83.30;;;;;;;-0.32;96.78;99195.92;105045;1273;61304;-74
2022/04/18 03:42:32;;;;;;;134.00;85.80;;;;;;;-0.24;97.05;99190.70;105081;1273;62374;-75
2022/04/18 03:45:00;;;;;;;124.60;86.20;;;;;;;-0.16;97.22;99186.73;105065;1274;75682;-76
2022/04/18 03:47:27;;;;;;;122.50;80.50;;;;;;;-0.10;97.37;99189.39;103694;1274;1015757;-74
2022/04/18 03:49:54;;;;;;;118.70;78.10;;;;;;;-0.03;97.31;99189.77;105117;1274;61298;-75
2022/04/18 03:52:23;;;;;;;119.90;77.60;;;;;;;0.05;97.36;99188.91;104975;1274;61231;-74
2022/04/18 03:54:50;;;;;;;112.20;70.00;;;;;;;0.11;97.29;99188.23;105080;1274;61124;-75
2022/04/18 03:57:16;;;;;;;88.10;59.40;;;;;;;0.18;97.17;99188.44;105327;1273;75307;-76
2022/04/18 03:59:43;;;;;;;95.60;64.50;;;;;;;0.26;97.23;99185.66;105107;1274;69200;-76
2022/04/18 04:02:10;;;;;;;96.50;64.00;;;;;;;0.30;97.38;99181.88;104995;1274;74786;-74
2022/04/18 04:04:37;;;;;;;101.30;67.80;;;;;;;0.35;97.19;99182.66;104977;1274;61390;-74
2022/04/18 04:07:04;;;;;;;92.00;62.50;;;;;;;0.39;97.34;99181.31;105061;1274;62080;-77
2022/04/18 04:09:31;;;;;;;98.90;63.50;;;;;;;0.44;97.53;99180.18;105422;1274;75056;-75
2022/04/18 04:11:58;;;;;;;95.80;62.30;;;;;;;0.46;97.44;99173.30;105082;1274;70350;-75
2022/04/18 04:14:24;;;;;;;101.50;62.40;;;;;;;0.49;97.45;99168.17;105026;1274;61343;-73
2022/04/18 04:16:51;;;;;;;90.20;62.40;;;;;;;0.54;97.63;99169.80;105050;1274;61470;-76
2022/04/18 04:19:17;;;;;;;73.70;52.70;;;;;;;0.59;97.63;99167.60;105045;1274;61492;-77
2022/04/18 04:21:44;;;;;;;70.60;48.90;;;;;;;0.64;97.48;99169.20;105081;1274;61043;-77
2022/04/18 04:24:11;;;;;;;69.20;48.10;;;;;;;0.72;97.49;99169.20;105067;1274;67798;-76
2022/04/18 04:26:37;;;;;;;65.00;46.60;;;;;;;0.78;97.47;99170.62;105090;1274;61244;-75
2022/04/18 04:29:04;;;;;;;62.80;44.10;;;;;;;0.85;97.24;99168.36;105020;1272;61418;-75
2022/04/18 04:31:31;;;;;;;59.80;43.00;;;;;;;0.92;97.14;99171.67;105047;1274;61907;-76
2022/04/18 04:33:57;;;;;;;69.20;45.30;;;;;;;0.98;97.17;99169.08;105082;1272;75435;-74
2022/04/18 04:36:24;;;;;;;62.00;45.00;;;;;;;1.04;97.18;99174.35;104352;1274;1002919;-72
2022/04/18 04:38:50;;;;;;;63.70;44.20;;;;;;;1.11;96.76;99178.37;105052;1274;61303;-76
2022/04/18 04:41:18;;;;;;;61.90;46.00;;;;;;;1.18;96.48;99177.84;105007;1274;62751;-75
2022/04/18 04:43:44;;;;;;;61.70;44.60;;;;;;;1.26;96.12;99183.05;105034;1273;61342;-74
2022/04/18 04:46:11;;;;;;;64.00;45.50;;;;;;;1.31;95.52;99182.04;105075;1274;61314;-76
2022/04/18 04:48:37;;;;;;;62.80;44.40;;;;;;;1.37;95.45;99183.31;105085;1273;69816;-74
2022/04/18 04:51:04;;;;;;;64.30;44.50;;;;;;;1.41;95.02;99180.91;105069;1273;73217;-75
2022/04/18 04:53:31;;;;;;;56.80;43.10;;;;;;;1.44;94.56;99181.01;105034;1273;61285;-73
2022/04/18 04:55:57;;;;;;;63.30;42.80;;;;;;;1.46;94.30;99180.93;105056;1274;61225;-74
2022/04/18 04:58:24;;;;;;;61.00;42.60;;;;;;;1.52;93.94;99179.39;105064;1271;73567;-75
2022/04/18 05:00:50;;;;;;;61.40;43.60;;;;;;;1.57;93.90;99175.59;105083;1274;67707;-76
2022/04/18 05:03:17;;;;;;;57.50;42.20;;;;;;;1.64;94.11;99175.74;105081;1274;73581;-73
2022/04/18 05:05:44;;;;;;;65.10;49.00;;;;;;;1.70;94.04;99175.21;104978;1274;61436;-75
2022/04/18 05:08:10;;;;;;;66.40;48.20;;;;;;;1.77;93.82;99178.87;105096;1274;61347;-75
2022/04/18 05:10:37;;;;;;;61.40;43.40;;;;;;;1.83;93.63;99174.30;105042;1274;61307;-76
2022/04/18 05:13:03;;;;;;;61.80;43.30;;;;;;;1.88;93.72;99172.61;105047;1274;61270;-74
2022/04/18 05:15:32;;;;;;;59.20;41.30;;;;;;;1.90;93.51;99176.40;104926;1274;61330;-75
2022/04/18 05:17:59;;;;;;;56.50;42.20;;;;;;;1.94;93.14;99176.48;105078;1272;61335;-75
2022/04/18 05:20:26;;;;;;;56.70;41.40;;;;;;;2.02;92.96;99176.05;105091;1274;62126;-75
2022/04/18 05:22:52;;;;;;;54.40;41.50;;;;;;;2.12;93.01;99175.04;105044;1274;61164;-74
2022/04/18 05:25:21;;;;;;;61.30;42.40;;;;;;;2.20;92.71;99174.98;105080;1273;61192;-75
2022/04/18 05:27:47;;;;;;;58.80;43.30;;;;;;;2.26;92.64;99176.04;105063;1272;73497;-76
2022/04/18 05:30:14;;;;;;;58.70;42.90;;;;;;;2.31;92.41;99180.44;104948;1274;61409;-75
2022/04/18 05:32:43;;;;;;;57.90;43.30;;;;;;;2.35;92.03;99180.48;105057;1273;61895;-75
2022/04/18 05:35:09;;;;;;;57.50;39.60;;;;;;;2.43;91.90;99185.53;105096;1274;75305;-75
2022/04/18 05:37:36;;;;;;;58.20;43.10;;;;;;;2.51;91.44;99184.23;105117;1274;69939;-74
2022/04/18 05:40:03;;;;;;;58.10;41.30;;;;;;;2.58;91.30;99189.95;105041;1273;61340;-73
2022/04/18 05:42:29;;;;;;;55.50;41.50;;;;;;;2.66;91.36;99186.72;104955;1274;61452;-75
2022/04/18 05:44:55;;;;;;;48.80;36.90;;;;;;;2.74;91.19;99182.25;105054;1271;61237;-75
2022/04/18 05:47:22;;;;;;;50.30;40.30;;;;;;;2.79;90.69;99184.02;105057;1274;61381;-73
2022/04/18 05:49:48;;;;;;;64.30;44.20;;;;;;;2.92;90.49;99186.59;105061;1273;61302;-75
2022/04/18 05:52:15;;;;;;;58.00;41.80;;;;;;;3.12;89.67;99188.38;105068;1273;61348;-74
2022/04/18 05:54:42;;;;;;;51.00;37.30;;;;;;;3.38;89.04;99185.21;105095;1273;61260;-75
2022/04/18 05:57:08;;;;;;;43.40;32.60;;;;;;;3.41;88.44;99188.27;105089;1273;61233;-74
2022/04/18 05:59:35;;;;;;;44.50;31.20;;;;;;;3.42;87.91;99182.98;105077;1273;75171;-75
2022/04/18 06:02:02;;;;;;;44.40;32.00;;;;;;;3.54;87.24;99162.52;105005;1273;70117;-76
2022/04/18 06:04:29;;;;;;;42.60;30.70;;;;;;;3.84;86.40;99149.83;105068;1273;73606;-75
2022/04/18 06:06:56;;;;;;;42.00;30.90;;;;;;;4.30;85.13;99141.42;105035;1274;61287;-75
2022/04/18 06:09:22;;;;;;;38.50;30.50;;;;;;;4.88;84.10;99140.64;105067;1273;61240;-75
2022/04/18 06:11:49;;;;;;;40.70;32.40;;;;;;;5.33;82.20;99145.98;105067;1273;61221;-75
2022/04/18 06:14:15;;;;;;;41.70;31.40;;;;;;;5.63;81.41;99146.09;105105;1272;61276;-77
2022/04/18 06:16:42;;;;;;;39.70;28.00;;;;;;;5.81;81.23;99144.59;105031;1273;61334;-77
2022/04/18 06:19:09;;;;;;;33.90;25.70;;;;;;;5.87;80.34;99148.72;104964;1273;61446;-76
2022/04/18 06:21:35;;;;;;;41.30;30.20;;;;;;;5.81;78.64;99146.01;105106;1273;61318;-75
2022/04/18 06:24:01;;;;;;;37.50;28.10;;;;;;;5.82;78.37;99147.36;105080;1273;61407;-76
2022/04/18 06:26:28;;;;;;;38.00;27.90;;;;;;;5.79;77.88;99154.55;105087;1274;68929;-74
2022/04/18 06:28:57;;;;;;;36.10;27.10;;;;;;;5.67;77.40;99150.83;105035;1273;72678;-75
2022/04/18 06:31:24;;;;;;;38.10;28.20;;;;;;;5.70;76.73;99146.14;105101;1273;61396;-75
2022/04/18 06:33:51;;;;;;;37.50;28.50;;;;;;;5.52;76.85;99148.16;105171;1274;61277;-76
2022/04/18 06:36:18;;;;;;;36.80;28.00;;;;;;;5.41;77.24;99148.63;105079;1272;75050;-76
2022/04/18 06:38:44;;;;;;;44.00;31.10;;;;;;;5.31;77.05;99150.64;105035;1274;61275;-77
2022/04/18 06:41:11;;;;;;;46.00;31.80;;;;;;;5.50;76.73;99153.70;105038;1273;61284;-75
2022/04/18 06:43:37;;;;;;;35.50;27.60;;;;;;;6.03;75.87;99147.67;105224;1271;61396;-76
2022/04/18 06:46:04;;;;;;;43.40;30.50;;;;;;;6.44;74.49;99142.04;105201;1271;61240;-77
2022/04/18 06:48:30;;;;;;;37.70;29.60;;;;;;;6.65;73.86;99138.00;105202;1271;61200;-76
2022/04/18 06:50:57;;;;;;;36.00;26.70;;;;;;;6.76;73.78;99139.44;105168;1271;69167;-75
2022/04/18 06:53:24;;;;;;;37.70;27.80;;;;;;;6.83;73.59;99140.16;105214;1271;73643;-75
2022/04/18 06:58:35;;;;;;;37.10;26.00;;;;;;;6.93;72.29;99147.42;105172;1271;61179;-76
2022/04/18 07:01:02;;;;;;;36.00;25.50;;;;;;;7.07;72.61;99145.50;105017;1271;61398;-75
2022/04/18 07:03:28;;;;;;;33.90;25.10;;;;;;;7.26;72.06;99145.41;105221;1271;61355;-75
2022/04/18 07:05:55;;;;;;;35.10;26.00;;;;;;;7.42;71.63;99143.02;105178;1271;61426;-75
2022/04/18 07:08:21;;;;;;;29.40;21.80;;;;;;;7.55;71.40;99147.27;105250;1271;61388;-75
2022/04/18 07:10:48;;;;;;;29.20;21.00;;;;;;;7.63;69.78;99144.91;105229;1271;61381;-75
2022/04/18 07:13:14;;;;;;;30.20;21.90;;;;;;;7.68;69.81;99146.42;105237;1270;61208;-74
2022/04/18 07:15:41;;;;;;;31.60;21.70;;;;;;;7.72;68.32;99138.63;105069;1271;61400;-75
2022/04/18 07:18:08;;;;;;;31.80;22.30;;;;;;;7.62;67.71;99137.40;105182;1271;61378;-75
2022/04/18 07:20:35;;;;;;;29.00;21.10;;;;;;;7.61;67.88;99135.65;105234;1271;61425;-75
2022/04/18 07:23:02;;;;;;;32.10;21.80;;;;;;;7.69;68.01;99133.83;105217;1271;61282;-73
2022/04/18 07:25:28;;;;;;;28.30;18.70;;;;;;;7.77;67.00;99130.23;105225;1271;73862;-74
2022/04/18 07:27:55;;;;;;;27.70;17.70;;;;;;;7.72;66.33;99126.58;105222;1271;70259;-74
2022/04/18 07:30:22;;;;;;;25.90;18.20;;;;;;;7.71;65.56;99124.89;105205;1271;61357;-74
2022/04/18 07:32:48;;;;;;;25.70;19.80;;;;;;;7.63;64.43;99127.40;105217;1271;61258;-74
2022/04/18 07:35:15;;;;;;;22.20;17.70;;;;;;;7.59;64.94;99121.24;105248;1271;61364;-74
2022/04/18 07:38:48;;;;;;;26.30;18.70;;;;;;;7.66;64.75;99119.33;105081;1271;61319;-75
2022/04/18 07:40:28;;;;;;;27.10;18.50;;;;;;;7.78;65.04;99114.77;105206;1271;69192;-75
2022/04/18 07:42:55;;;;;;;22.50;17.70;;;;;;;7.91;64.80;99111.95;105080;1271;74306;-76
2022/04/18 07:45:22;;;;;;;21.40;16.10;;;;;;;7.97;64.43;99109.50;105149;1271;61274;-74
2022/04/18 07:47:52;;;;;;;22.70;16.60;;;;;;;8.04;63.73;99108.27;105156;1271;61299;-74
2022/04/18 07:50:19;;;;;;;22.30;16.10;;;;;;;8.13;63.88;99102.63;105128;1274;74529;-75
2022/04/18 07:52:45;;;;;;;20.80;15.10;;;;;;;8.22;63.90;99100.20;105093;1272;67333;-73
2022/04/18 07:55:12;;;;;;;20.80;15.00;;;;;;;8.31;63.35;99099.30;105019;1273;61338;-74
2022/04/18 07:57:38;;;;;;;21.90;14.60;;;;;;;8.43;63.35;99095.29;105055;1272;61311;-75
2022/04/18 08:00:06;;;;;;;17.10;12.20;;;;;;;8.60;63.35;99097.34;105056;1274;61495;-78
2022/04/18 08:02:34;;;;;;;17.30;12.90;;;;;;;8.75;62.31;99096.88;105155;1273;74736;-75
2022/04/18 08:05:01;;;;;;;19.70;13.90;;;;;;;8.84;62.38;99097.55;105031;1274;70682;-76
2022/04/18 08:07:27;;;;;;;19.10;14.80;;;;;;;8.98;62.03;99098.17;105063;1273;74334;-76
2022/04/18 08:09:54;;;;;;;16.40;12.10;;;;;;;9.08;61.19;99095.42;105128;1273;61157;-77
2022/04/18 08:12:20;;;;;;;16.30;12.80;;;;;;;9.19;61.63;99095.17;105141;1273;61384;-78
2022/04/18 08:14:47;;;;;;;14.20;12.00;;;;;;;9.37;61.36;99092.67;105124;1273;61297;-76
2022/04/18 08:17:13;;;;;;;17.40;13.30;;;;;;;9.50;60.73;99092.54;105075;1273;61415;-76
2022/04/18 08:19:40;;;;;;;16.80;12.70;;;;;;;9.67;60.47;99091.89;105051;1274;61285;-75
2022/04/18 08:22:06;;;;;;;17.00;13.00;;;;;;;9.73;59.33;99085.46;105002;1273;61285;-76
2022/04/18 08:24:34;;;;;;;17.80;12.60;;;;;;;9.80;58.74;99080.59;105075;1273;61286;-76
2022/04/18 08:27:01;;;;;;;14.20;12.00;;;;;;;9.90;58.08;99080.67;105130;1273;75366;-77
2022/04/18 08:29:27;;;;;;;16.30;13.00;;;;;;;10.05;57.97;99071.55;104906;1274;68265;-76
2022/04/18 08:31:55;;;;;;;16.30;12.10;;;;;;;10.32;57.60;99071.09;104994;1274;72846;-76
2022/04/18 08:34:21;;;;;;;14.10;11.40;;;;;;;10.67;57.11;99062.44;105074;1274;61405;-77
2022/04/18 08:36:48;;;;;;;14.90;12.40;;;;;;;11.04;56.41;99059.80;105106;1274;61396;-76
2022/04/18 08:39:14;;;;;;;13.10;11.20;;;;;;;11.43;55.56;99058.39;105154;1271;61189;-77
2022/04/18 08:41:44;;;;;;;14.00;11.50;;;;;;;11.61;53.94;99053.74;105137;1274;69210;-76
2022/04/18 08:44:11;;;;;;;12.30;11.00;;;;;;;11.67;53.58;99051.52;105284;1272;74527;-77
2022/04/18 08:46:38;;;;;;;13.70;11.80;;;;;;;11.87;54.14;99049.27;105046;1273;61295;-77
2022/04/18 08:54:39;;;;;;;23.80;20.50;;;;;;;12.35;51.60;99039.52;105029;1273;67778;-75
2022/04/18 08:57:06;;;;;;;12.20;10.90;;;;;;;12.59;51.16;99038.32;105347;1271;73410;-75
2022/04/18 08:59:32;;;;;;;13.30;12.00;;;;;;;12.75;51.32;99041.92;105240;1271;61389;-76
2022/04/18 09:01:59;;;;;;;22.10;19.60;;;;;;;12.84;50.00;99032.52;105235;1271;61151;-77
2022/04/18 09:04:26;;;;;;;9.50;8.30;;;;;;;12.67;47.60;99043.41;105260;1270;75216;-76
2022/04/18 09:06:52;;;;;;;10.20;8.10;;;;;;;12.03;44.45;99039.20;105301;1270;69957;-76
2022/04/18 09:09:28;;;;;;;11.50;9.50;;;;;;;11.34;45.02;99042.10;105176;1271;61320;-77
2022/04/18 09:11:55;;;;;;;10.50;8.60;;;;;;;10.76;45.41;99041.43;105243;1271;61285;-75
2022/04/18 09:14:21;;;;;;;8.00;6.70;;;;;;;10.36;45.98;99045.64;105227;1271;61170;-75
2022/04/18 09:16:48;;;;;;;7.30;6.10;;;;;;;10.03;45.53;99045.98;105228;1271;76473;-75
2022/04/18 09:19:16;;;;;;;12.80;10.20;;;;;;;9.65;46.50;99057.39;105219;1271;70148;-76
2022/04/18 09:21:44;;;;;;;12.00;10.80;;;;;;;9.28;47.71;99066.05;105102;1271;73478;-76
2022/04/18 09:24:24;;;;;;;14.60;10.90;;;;;;;8.94;48.32;99061.17;105175;1271;61317;-76
2022/04/18 09:26:51;;;;;;;14.90;11.10;;;;;;;8.66;50.02;99058.23;106638;1271;60814;-74
2022/04/18 09:29:21;;;;;;;13.40;11.60;;;;;;;8.46;50.91;99060.42;105680;1271;76427;-76
2022/04/18 09:31:52;;;;;;;12.60;11.00;;;;;;;8.38;51.79;99058.20;105154;1270;69898;-77
2022/04/18 09:34:22;;;;;;;16.10;12.00;;;;;;;8.44;51.85;99052.77;105255;1270;74373;-77
2022/04/18 09:37:09;;;;;;;14.10;11.90;;;;;;;8.53;52.28;99044.98;105285;1270;61225;-76
2022/04/18 09:39:36;;;;;;;14.90;10.80;;;;;;;8.68;52.65;99041.80;105369;1271;61963;-76
2022/04/18 09:42:11;;;;;;;18.40;12.80;;;;;;;8.80;52.52;99034.20;105692;1270;73660;-76
2022/04/18 09:44:38;;;;;;;14.00;10.40;;;;;;;8.93;52.99;99031.64;106532;1271;69644;-75
2022/04/18 09:47:05;;;;;;;15.50;11.30;;;;;;;9.07;52.55;99026.52;106677;1271;71548;-77
2022/04/18 09:49:41;;;;;;;15.90;14.20;;;;;;;9.18;51.89;99020.96;106499;1271;61355;-76
2022/04/18 09:52:11;;;;;;;15.00;12.50;;;;;;;9.32;52.24;99017.10;105795;1271;61208;-76
2022/04/18 09:54:44;;;;;;;12.60;11.00;;;;;;;9.47;51.55;99012.79;105239;1270;75550;-78
2022/04/18 09:57:11;;;;;;;13.30;11.70;;;;;;;9.60;51.77;99004.86;105291;1271;69289;-76
2022/04/18 09:59:39;;;;;;;13.80;10.10;;;;;;;9.85;52.03;99003.46;105253;1271;74811;-76
2022/04/18 10:02:12;;;;;;;12.00;9.60;;;;;;;10.18;51.86;99002.91;105262;1270;61306;-76
2022/04/18 10:04:40;;;;;;;13.30;10.00;;;;;;;10.58;51.40;99001.41;105232;1271;61457;-74
2022/04/18 10:07:08;;;;;;;10.00;8.20;;;;;;;10.71;50.18;98997.68;105213;1271;75012;-77
2022/04/18 10:09:38;;;;;;;11.20;8.70;;;;;;;10.62;48.78;98996.50;105418;1270;69265;-77
2022/04/18 10:12:07;;;;;;;7.60;6.30;;;;;;;10.70;49.16;98998.64;105108;1270;74406;-76
2022/04/18 10:14:34;;;;;;;9.20;6.20;;;;;;;10.81;47.77;98993.64;104982;1271;61340;-77
2022/04/18 10:17:01;;;;;;;8.20;6.50;;;;;;;10.90;48.01;98990.89;105236;1271;61732;-76
2022/04/18 10:19:57;;;;;;;8.50;6.40;;;;;;;10.92;46.93;98986.09;105155;1271;74409;-77
2022/04/18 10:22:32;;;;;;;7.50;5.90;;;;;;;10.95;47.18;98981.15;105216;1270;70221;-78
2022/04/18 10:25:36;;;;;;;8.20;6.90;;;;;;;11.07;47.87;98979.41;105243;1270;73406;-76
2022/04/18 10:28:23;;;;;;;9.40;7.40;;;;;;;11.24;48.06;98981.46;105227;1271;61397;-77
2022/04/18 10:30:58;;;;;;;11.10;8.90;;;;;;;11.41;48.26;98974.86;105355;1271;61349;-77
2022/04/18 10:33:25;;;;;;;13.90;12.20;;;;;;;11.56;47.73;98970.09;105102;1271;76673;-76
2022/04/18 10:35:54;;;;;;;10.40;9.10;;;;;;;11.54;47.56;98975.08;105188;1270;70380;-76
2022/04/18 10:38:25;;;;;;;12.30;8.80;;;;;;;11.54;47.61;98969.66;105457;1271;73415;-77
2022/04/18 10:41:14;;;;;;;9.90;7.20;;;;;;;11.68;47.56;98970.30;105158;1270;61253;-74
2022/04/18 10:44:08;;;;;;;13.40;12.00;;;;;;;11.85;46.32;98966.77;105204;1271;61236;-77
2022/04/18 10:46:42;;;;;;;11.60;10.30;;;;;;;11.94;45.75;98956.89;104856;1279;75100;-76
2022/04/18 10:49:17;;;;;;;11.80;8.30;;;;;;;12.08;45.59;98950.52;104715;1276;70218;-75
2022/04/18 10:51:46;;;;;;;7.40;6.00;;;;;;;12.32;45.42;98944.98;104815;1276;74527;-76
2022/04/18 10:54:21;;;;;;;9.10;7.20;;;;;;;12.69;45.51;98936.99;104787;1276;61306;-76
2022/04/18 10:56:54;;;;;;;6.90;6.30;;;;;;;13.17;45.38;98927.02;104685;1276;61789;-77
2022/04/18 10:59:22;;;;;;;9.70;6.40;;;;;;;13.64;45.19;98916.90;104700;1276;75139;-76
2022/04/18 11:01:50;;;;;;;7.90;6.70;;;;;;;13.89;44.60;98914.86;104733;1276;69418;-75
2022/04/18 11:04:17;;;;;;;7.30;6.50;;;;;;;13.84;43.81;98914.04;104708;1276;74276;-76
2022/04/18 11:06:45;;;;;;;7.00;4.70;;;;;;;13.68;42.60;98920.88;104629;1276;61491;-76
2022/04/18 11:09:14;;;;;;;6.70;5.30;;;;;;;13.50;40.53;98920.90;104686;1277;61321;-77
2022/04/18 11:11:53;;;;;;;7.70;5.40;;;;;;;13.16;39.31;98923.03;104966;1276;75343;-79
2022/04/18 11:14:43;;;;;;;6.80;6.00;;;;;;;12.84;40.22;98927.29;104945;1276;70073;-75
2022/04/18 11:17:12;;;;;;;7.00;5.80;;;;;;;12.69;40.87;98925.76;104468;1276;73479;-76
2022/04/18 11:19:41;;;;;;;7.90;6.20;;;;;;;12.60;40.90;98920.80;105042;1276;61490;-76
2022/04/18 11:22:24;;;;;;;7.50;6.20;;;;;;;12.55;40.97;98918.67;104695;1276;61498;-76
2022/04/18 11:24:54;;;;;;;6.20;5.60;;;;;;;12.56;41.36;98910.05;105039;1271;75106;-75
2022/04/18 11:27:27;;;;;;;7.00;5.70;;;;;;;12.60;41.40;98906.36;105196;1270;69295;-76
2022/04/18 11:30:13;;;;;;;5.70;4.90;;;;;;;12.56;40.48;98905.94;105169;1271;73216;-76
2022/04/18 11:32:46;;;;;;;5.50;4.50;;;;;;;12.43;40.94;98905.88;105317;1270;61307;-75
2022/04/18 11:35:14;;;;;;;7.10;5.60;;;;;;;12.42;41.20;98903.43;105387;1270;61572;-78